Emu Arrow — C6OR4 — position and weather

sailwx.info

Track history (hours):
 
Tides and Currents Weather Stations Pressure Air Temp Water Temp Dewpoint Dewpoint Depression Visibility Wind Speed Wind Dir Waves Ship Positions

Emu Arrow

Last reported at 2017-Mar-07 02:33 UTC. Time now 2017-Mar-24 12:10 UTC.
Position N 32°03' E 120°26'.
Warning: this ship's position is 17 days out of date.

Length 200 m; draft 7.2 m.

Type: Cargo ship. MMSI: 309805000.

Date/timePositionNaut miles runAvg speedWind from/ knotsBaromVisibWave heightAir tempDewpointWater temp
2017-Mar-07 02:33N 32°03' E 120°26'2610.7
2017-Mar-07 00:06N 31°51' E 120°54'911.6
2017-Mar-06 23:22N 31°46' E 121°02'1113.3
2017-Mar-06 22:33N 31°40' E 121°12'7 7.3
2017-Mar-06 21:32N 31°35' E 121°19'0 0.1
2017-Mar-06 20:33N 31°35' E 121°19'0 0.1
2017-Mar-06 19:33N 31°35' E 121°19'0 0.0
2017-Mar-06 18:33N 31°35' E 121°19'0 0.0
2017-Mar-06 17:33N 31°35' E 121°19'0 0.0
2017-Mar-06 16:33N 31°35' E 121°19'0 0.0
2017-Mar-06 15:33N 31°35' E 121°19'0 0.1
2017-Mar-06 14:33N 31°35' E 121°19'5 4.5
2017-Mar-06 13:33N 31°32' E 121°22'9 9.4
2017-Mar-06 12:33N 31°25' E 121°30'8 8.5
2017-Mar-06 11:33N 31°21' E 121°39'10 9.6
2017-Mar-06 10:33N 31°17' E 121°49'1313.0
2017-Mar-06 09:33N 31°14' E 122°04'10 9.8
2017-Mar-06 08:33N 31°09' E 122°14'9 8.8
2017-Mar-06 07:33N 31°06' E 122°24'  
Track history (hours):
 
Tides and Currents Weather Stations Pressure Air Temp Water Temp Dewpoint Dewpoint Depression Visibility Wind Speed Wind Dir Waves Ship Positions

Emu Arrow

Last reported at 2017-Mar-07 02:33 UTC. Time now 2017-Mar-24 12:10 UTC.
Position N 32°03' E 120°26'.
Warning: this ship's position is 17 days out of date.

Length 200 m; draft 7.2 m.

Type: Cargo ship. MMSI: 309805000.

Date/timePositionNaut miles runAvg speedWind from/ knotsBaromVisibWave heightAir tempDewpointWater temp
2017-Mar-07 02:33N 32°03' E 120°26'2610.7
2017-Mar-07 00:06N 31°51' E 120°54'911.6
2017-Mar-06 23:22N 31°46' E 121°02'1113.3
2017-Mar-06 22:33N 31°40' E 121°12'7 7.3
2017-Mar-06 21:32N 31°35' E 121°19'0 0.1
2017-Mar-06 20:33N 31°35' E 121°19'0 0.1
2017-Mar-06 19:33N 31°35' E 121°19'0 0.0
2017-Mar-06 18:33N 31°35' E 121°19'0 0.0
2017-Mar-06 17:33N 31°35' E 121°19'0 0.0
2017-Mar-06 16:33N 31°35' E 121°19'0 0.0
2017-Mar-06 15:33N 31°35' E 121°19'0 0.1
2017-Mar-06 14:33N 31°35' E 121°19'5 4.5
2017-Mar-06 13:33N 31°32' E 121°22'9 9.4
2017-Mar-06 12:33N 31°25' E 121°30'8 8.5
2017-Mar-06 11:33N 31°21' E 121°39'10 9.6
2017-Mar-06 10:33N 31°17' E 121°49'1313.0
2017-Mar-06 09:33N 31°14' E 122°04'10 9.8
2017-Mar-06 08:33N 31°09' E 122°14'9 8.8
2017-Mar-06 07:33N 31°06' E 122°24'  

Dump ship's entire track history